Terminal Aerodrome Forecast
Issued by NWS

Home | Current Version | Previous Version | Text Only | Print | Product List | Glossary On
Versions: 1 2 3 4 5 6 7 8 9 10 11 12 13 14 15 16 17 18 19
000
FTAK31 PAJN 290500
TAFAYA
TAF
PAYA 290524Z 2906/3006 05003KT P6SM SCT150
     FM292000 07008KT P6SM BKN120
      AMD LTD TO CLD VIS AND WIND 2906/2910=

USA.gov is the U.S. government's official web portal to all federal, state and local government web resources and services.